createdAt,value
2016-10-08T00:00:08.213Z,95.94
2016-10-08T00:01:08.395Z,95.59
2016-10-08T00:02:08.023Z,94.96
2016-10-08T00:03:07.938Z,95.51
2016-10-08T00:04:08.336Z,95.67
2016-10-08T00:05:08.127Z,95.54
2016-10-08T00:06:07.725Z,94.29
2016-10-08T00:07:09.382Z,93.76
2016-10-08T00:08:08.060Z,94.01
2016-10-08T00:09:08.312Z,94.86
2016-10-08T00:10:17.356Z,94.97
2016-10-08T00:11:08.011Z,95.36
2016-10-08T00:12:08.654Z,94.97
2016-10-08T00:13:09.220Z,94.63
2016-10-08T00:14:08.549Z,94.17
2016-10-08T00:15:08.104Z,94.05
2016-10-08T00:16:07.812Z,93.47
2016-10-08T00:17:10.180Z,93.82
2016-10-08T00:18:08.324Z,94.75
2016-10-08T00:19:07.811Z,95.45
2016-10-08T00:20:07.716Z,95.55
2016-10-08T00:21:11.346Z,95.62
2016-10-08T00:22:07.786Z,95.08
2016-10-08T00:23:08.524Z,94.03
2016-10-08T00:24:08.468Z,94.23
2016-10-08T00:25:07.736Z,94.49
2016-10-08T00:26:08.789Z,94.41
2016-10-08T00:27:08.069Z,95.22
2016-10-08T00:28:07.770Z,95.83
2016-10-08T00:29:08.447Z,95.21
2016-10-08T00:30:08.141Z,95.05
2016-10-08T00:31:09.639Z,93.98
2016-10-08T00:32:08.261Z,93.89
2016-10-08T00:33:08.083Z,94.61
2016-10-08T00:34:07.720Z,94.59
2016-10-08T00:35:08.401Z,95.14
2016-10-08T00:36:07.883Z,95.75
2016-10-08T00:37:08.418Z,95.15
2016-10-08T00:38:08.164Z,94.49
2016-10-08T00:39:09.634Z,94.90
2016-10-08T00:40:08.152Z,94.45
2016-10-08T00:41:07.744Z,95.25
2016-10-08T00:42:08.167Z,95.60
2016-10-08T00:43:07.974Z,95.05
2016-10-08T00:44:08.299Z,95.41
2016-10-08T00:45:08.053Z,94.75
2016-10-08T00:46:07.591Z,94.46
2016-10-08T00:47:08.909Z,94.92
2016-10-08T00:48:08.020Z,95.31
2016-10-08T00:49:07.536Z,95.79
2016-10-08T00:50:08.281Z,95.88
2016-10-08T00:51:07.852Z,94.89
2016-10-08T00:52:07.613Z,94.53
2016-10-08T00:53:08.434Z,94.62
2016-10-08T00:54:08.183Z,94.71
2016-10-08T00:55:07.759Z,94.96
2016-10-08T00:56:08.477Z,95.41
2016-10-08T00:57:18.558Z,95.72
2016-10-08T00:58:07.662Z,95.29
2016-10-08T00:59:08.292Z,94.44
2016-10-08T01:00:08.905Z,94.86
2016-10-08T01:01:08.681Z,94.23
2016-10-08T01:02:08.446Z,94.67
2016-10-08T01:03:08.079Z,95.59
2016-10-08T01:04:07.822Z,95.22
2016-10-08T01:05:08.473Z,95.17
2016-10-08T01:06:09.806Z,95.47
2016-10-08T01:07:07.664Z,95.10
2016-10-08T01:08:08.871Z,94.98
2016-10-08T01:09:08.098Z,94.76
2016-10-08T01:10:07.825Z,94.23
2016-10-08T01:11:08.379Z,94.43
2016-10-08T01:12:08.021Z,94.52
2016-10-08T01:13:07.695Z,94.80
2016-10-08T01:14:08.337Z,94.97
2016-10-08T01:15:08.061Z,94.85
2016-10-08T01:16:07.704Z,94.56
2016-10-08T01:17:08.394Z,94.29
2016-10-08T01:18:08.162Z,94.25
2016-10-08T01:19:07.679Z,94.83
2016-10-08T01:20:08.506Z,95.88
2016-10-08T01:21:08.095Z,94.76
2016-10-08T01:22:07.806Z,94.19
2016-10-08T01:23:08.435Z,94.75
2016-10-08T01:24:07.958Z,94.98
2016-10-08T01:25:07.667Z,95.09
2016-10-08T01:26:08.308Z,95.44
2016-10-08T01:27:08.027Z,95.27
2016-10-08T01:28:07.673Z,94.58
2016-10-08T01:29:08.425Z,94.90
2016-10-08T01:30:08.014Z,95.16
2016-10-08T01:31:21.711Z,93.54
2016-10-08T01:32:08.278Z,93.44
2016-10-08T01:33:08.002Z,93.20
2016-10-08T01:34:07.584Z,93.21
2016-10-08T01:35:08.280Z,92.97
2016-10-08T01:36:07.895Z,92.41
2016-10-08T01:37:07.619Z,92.87
2016-10-08T01:38:08.300Z,92.84
2016-10-08T01:39:07.904Z,92.92
2016-10-08T01:40:07.628Z,93.01
2016-10-08T01:41:08.241Z,92.73
2016-10-08T01:42:07.918Z,93.33
2016-10-08T01:43:07.582Z,94.07
2016-10-08T01:44:08.231Z,93.95
2016-10-08T01:45:07.923Z,93.61
2016-10-08T01:46:07.519Z,93.46
2016-10-08T01:47:08.177Z,93.16
2016-10-08T01:48:07.901Z,92.86
2016-10-08T01:49:07.513Z,92.23
2016-10-08T01:50:08.222Z,92.25
2016-10-08T01:51:07.829Z,92.76
2016-10-08T01:52:07.519Z,91.91
2016-10-08T01:53:08.199Z,91.81
2016-10-08T01:54:07.878Z,91.94
2016-10-08T01:55:07.527Z,92.16
2016-10-08T01:56:08.147Z,92.58
2016-10-08T01:57:07.796Z,92.38
2016-10-08T01:58:07.472Z,91.96
2016-10-08T01:59:08.127Z,92.20
2016-10-08T02:00:07.993Z,92.14
2016-10-08T02:01:07.440Z,91.29
2016-10-08T02:02:08.113Z,92.90
2016-10-08T02:03:07.813Z,91.98
2016-10-08T02:04:07.470Z,93.12
2016-10-08T02:05:08.150Z,91.56
2016-10-08T02:06:07.736Z,91.93
2016-10-08T02:07:07.392Z,91.18
2016-10-08T02:08:08.064Z,91.18
2016-10-08T02:09:07.710Z,92.25
2016-10-08T02:10:08.438Z,92.32
2016-10-08T02:11:08.023Z,92.45
2016-10-08T02:12:07.669Z,91.45
2016-10-08T02:13:08.322Z,90.83
2016-10-08T02:14:08.003Z,90.53
2016-10-08T02:15:07.712Z,91.04
2016-10-08T02:16:08.422Z,90.62
2016-10-08T02:17:08.106Z,91.09
2016-10-08T02:18:07.860Z,90.53
2016-10-08T02:19:07.543Z,90.45
2016-10-08T02:20:08.213Z,90.50
2016-10-08T02:21:07.830Z,90.94
2016-10-08T02:22:07.507Z,90.26
2016-10-08T02:23:08.158Z,90.76
2016-10-08T02:24:07.851Z,92.33
2016-10-08T02:25:07.522Z,91.30
2016-10-08T02:26:08.151Z,91.01
2016-10-08T02:27:07.811Z,91.16
2016-10-08T02:28:07.498Z,90.43
2016-10-08T02:29:08.196Z,90.38
2016-10-08T02:30:07.868Z,90.63
2016-10-08T02:31:07.488Z,90.39
2016-10-08T02:32:08.150Z,91.06
2016-10-08T02:33:07.803Z,90.78
2016-10-08T02:34:07.389Z,90.49
2016-10-08T02:35:08.166Z,91.21
2016-10-08T02:36:07.730Z,90.83
2016-10-08T02:37:08.381Z,90.09
2016-10-08T02:38:08.052Z,89.81
2016-10-08T02:39:07.672Z,91.23
2016-10-08T02:40:08.399Z,92.99
2016-10-08T02:41:08.005Z,91.72
2016-10-08T02:42:07.669Z,91.31
2016-10-08T02:43:08.336Z,90.95
2016-10-08T02:44:07.997Z,91.06
2016-10-08T02:45:07.690Z,91.13
2016-10-08T02:46:08.310Z,91.46
2016-10-08T02:47:07.967Z,92.04
2016-10-08T02:48:07.670Z,92.98
2016-10-08T02:49:08.307Z,92.26
2016-10-08T02:50:08.006Z,91.53
2016-10-08T02:51:07.620Z,92.91
2016-10-08T02:52:08.301Z,92.67
2016-10-08T02:53:07.955Z,92.18
2016-10-08T02:54:07.629Z,93.04
2016-10-08T02:55:08.325Z,93.06
2016-10-08T02:56:07.919Z,92.68
2016-10-08T02:57:07.553Z,92.06
2016-10-08T02:58:08.205Z,92.27
2016-10-08T02:59:07.923Z,91.89
2016-10-08T03:00:07.588Z,93.15
2016-10-08T03:01:08.215Z,92.80
2016-10-08T03:02:07.869Z,92.44
2016-10-08T03:03:07.536Z,92.90
2016-10-08T03:04:08.156Z,93.73
2016-10-08T03:05:08.003Z,93.99
2016-10-08T03:06:07.492Z,93.91
2016-10-08T03:07:08.137Z,93.80
2016-10-08T03:08:07.832Z,92.96
2016-10-08T03:09:07.466Z,92.49
2016-10-08T03:10:08.158Z,93.01
2016-10-08T03:11:07.789Z,93.22
2016-10-08T03:12:07.447Z,93.05
2016-10-08T03:13:08.133Z,93.46
2016-10-08T03:14:07.802Z,93.50
2016-10-08T03:15:07.484Z,93.66
2016-10-08T03:16:08.086Z,94.10
2016-10-08T03:17:07.748Z,94.12
2016-10-08T03:18:07.556Z,93.82
2016-10-08T03:19:08.275Z,93.37
2016-10-08T03:20:07.985Z,93.27
2016-10-08T03:21:07.578Z,93.47
2016-10-08T03:22:08.234Z,93.82
2016-10-08T03:23:07.873Z,93.89
2016-10-08T03:24:07.491Z,93.35
2016-10-08T03:25:08.217Z,93.29
2016-10-08T03:26:07.796Z,92.82
2016-10-08T03:27:07.454Z,92.66
2016-10-08T03:28:08.154Z,92.75
2016-10-08T03:29:07.776Z,92.97
2016-10-08T03:30:07.455Z,93.17
2016-10-08T03:31:08.064Z,93.44
2016-10-08T03:32:07.769Z,93.61
2016-10-08T03:33:07.659Z,93.09
2016-10-08T03:34:08.163Z,93.89
2016-10-08T03:35:07.886Z,93.13
2016-10-08T03:36:07.475Z,93.24
2016-10-08T03:37:08.135Z,94.04
2016-10-08T03:38:07.763Z,92.93
2016-10-08T03:39:07.423Z,93.53
2016-10-08T03:40:08.155Z,93.61
2016-10-08T03:41:07.771Z,93.67
2016-10-08T03:42:08.021Z,93.66
2016-10-08T03:43:07.675Z,94.35
2016-10-08T03:44:08.303Z,95.00
2016-10-08T03:45:08.040Z,94.09
2016-10-08T03:46:07.645Z,94.10
2016-10-08T03:47:08.291Z,95.04
2016-10-08T03:48:07.984Z,94.51
2016-10-08T03:49:07.704Z,94.75
2016-10-08T03:50:08.314Z,94.87
2016-10-08T03:51:07.904Z,95.07
2016-10-08T03:52:07.610Z,94.09
2016-10-08T03:53:08.325Z,94.25
2016-10-08T03:54:07.953Z,95.21
2016-10-08T03:55:07.679Z,95.09
2016-10-08T03:56:08.290Z,95.13
2016-10-08T03:57:07.961Z,95.37
2016-10-08T03:58:07.586Z,95.28
2016-10-08T03:59:08.278Z,94.94
2016-10-08T04:00:07.996Z,94.02
2016-10-08T04:01:07.600Z,94.27
2016-10-08T04:02:08.325Z,93.85
2016-10-08T04:03:08.004Z,94.19
2016-10-08T04:04:07.642Z,94.30
2016-10-08T04:05:08.332Z,94.30
2016-10-08T04:06:07.913Z,94.32
2016-10-08T04:07:07.603Z,94.34
2016-10-08T04:08:08.239Z,94.14
2016-10-08T04:09:07.963Z,94.39
2016-10-08T04:10:07.686Z,93.05
2016-10-08T04:11:08.387Z,93.03
2016-10-08T04:12:07.970Z,94.00
2016-10-08T04:13:07.658Z,94.34
2016-10-08T04:14:08.321Z,94.08
2016-10-08T04:15:08.000Z,94.33
2016-10-08T04:16:07.645Z,95.02
2016-10-08T04:17:08.416Z,95.20
2016-10-08T04:18:08.169Z,94.87
2016-10-08T04:19:07.799Z,95.16
2016-10-08T04:20:07.459Z,94.35
2016-10-08T04:21:08.068Z,95.38
2016-10-08T04:22:07.718Z,94.25
2016-10-08T04:23:07.387Z,93.30
2016-10-08T04:24:08.051Z,93.38
2016-10-08T04:25:10.334Z,93.40
2016-10-08T04:26:08.127Z,93.45
2016-10-08T04:27:07.770Z,92.65
2016-10-08T04:28:07.402Z,92.58
2016-10-08T04:29:08.051Z,93.64
2016-10-08T04:30:07.719Z,93.14
2016-10-08T04:31:07.447Z,93.06
2016-10-08T04:32:08.069Z,94.37
2016-10-08T04:33:07.725Z,93.32
2016-10-08T04:34:08.350Z,93.35
2016-10-08T04:35:08.045Z,93.68
2016-10-08T04:36:07.750Z,93.76
2016-10-08T04:37:08.354Z,93.90
2016-10-08T04:38:08.014Z,94.16
2016-10-08T04:39:07.674Z,94.92
2016-10-08T04:40:07.372Z,94.52
2016-10-08T04:41:08.120Z,93.26
2016-10-08T04:42:07.706Z,93.91
2016-10-08T04:43:07.393Z,94.87
2016-10-08T04:44:08.049Z,94.51
2016-10-08T04:45:07.717Z,94.30
2016-10-08T04:46:15.015Z,94.00
2016-10-08T04:47:07.980Z,93.64
2016-10-08T04:48:07.691Z,94.20
2016-10-08T04:49:08.285Z,94.10
2016-10-08T04:50:07.961Z,93.95
2016-10-08T04:51:07.600Z,93.52
2016-10-08T04:52:08.310Z,93.95
2016-10-08T04:53:07.919Z,94.95
2016-10-08T04:54:07.551Z,94.70
2016-10-08T04:55:08.242Z,93.04
2016-10-08T04:56:07.889Z,93.22
2016-10-08T04:57:07.616Z,93.61
2016-10-08T04:58:08.214Z,92.08
2016-10-08T04:59:07.895Z,92.32
2016-10-08T05:00:07.560Z,92.32
2016-10-08T05:01:08.197Z,92.05
2016-10-08T05:02:07.891Z,91.73
2016-10-08T05:03:07.530Z,90.31
2016-10-08T05:04:08.137Z,89.99
2016-10-08T05:05:07.781Z,89.84
2016-10-08T05:06:07.434Z,89.97
2016-10-08T05:07:08.131Z,90.63
2016-10-08T05:08:07.739Z,91.61
2016-10-08T05:09:07.365Z,91.29
2016-10-08T05:10:08.051Z,91.13
2016-10-08T05:11:07.665Z,90.31
2016-10-08T05:12:07.423Z,89.67
2016-10-08T05:13:08.069Z,90.74
2016-10-08T05:14:07.742Z,89.90
2016-10-08T05:15:08.351Z,89.55
2016-10-08T05:16:07.991Z,89.99
2016-10-08T05:17:07.781Z,91.16
2016-10-08T05:18:07.518Z,90.04
2016-10-08T05:19:08.114Z,90.31
2016-10-08T05:20:07.797Z,89.66
2016-10-08T05:21:07.424Z,89.74
2016-10-08T05:22:08.120Z,88.93
2016-10-08T05:23:07.751Z,88.75
2016-10-08T05:24:07.413Z,88.55
2016-10-08T05:25:08.081Z,89.33
2016-10-08T05:26:07.740Z,89.39
2016-10-08T05:27:07.436Z,89.64
2016-10-08T05:28:08.069Z,88.45
2016-10-08T05:29:07.700Z,89.25
2016-10-08T05:30:08.344Z,89.61
2016-10-08T05:31:08.004Z,89.64
2016-10-08T05:32:07.692Z,89.31
2016-10-08T05:33:08.574Z,89.95
2016-10-08T05:34:08.183Z,89.78
2016-10-08T05:35:07.812Z,90.23
2016-10-08T05:36:07.486Z,90.38
2016-10-08T05:37:08.174Z,90.24
2016-10-08T05:38:07.773Z,90.25
2016-10-08T05:39:07.539Z,90.74
2016-10-08T05:40:08.097Z,90.31
2016-10-08T05:41:07.736Z,90.36
2016-10-08T05:42:07.456Z,90.72
2016-10-08T05:43:08.046Z,90.94
2016-10-08T05:44:07.686Z,90.62
2016-10-08T05:45:08.340Z,90.91
2016-10-08T05:46:07.976Z,91.18
2016-10-08T05:47:07.698Z,90.98
2016-10-08T05:48:08.366Z,91.17
2016-10-08T05:49:07.926Z,90.60
2016-10-08T05:50:07.620Z,90.82
2016-10-08T05:51:08.251Z,90.78
2016-10-08T05:52:07.977Z,90.49
2016-10-08T05:53:07.621Z,90.67
2016-10-08T05:54:08.277Z,91.00
2016-10-08T05:55:07.920Z,91.10
2016-10-08T05:56:07.574Z,91.04
2016-10-08T05:57:08.299Z,91.19
2016-10-08T05:58:07.886Z,91.21
2016-10-08T05:59:07.558Z,91.28
2016-10-08T06:00:08.200Z,91.94
2016-10-08T06:01:07.843Z,91.85
2016-10-08T06:02:07.586Z,91.16
2016-10-08T06:03:07.580Z,91.58
2016-10-08T06:04:08.160Z,91.50
2016-10-08T06:05:07.793Z,91.70
2016-10-08T06:06:07.430Z,92.42
2016-10-08T06:07:08.147Z,91.62
2016-10-08T06:08:07.746Z,91.46
2016-10-08T06:09:07.414Z,91.46
2016-10-08T06:10:08.072Z,91.11
2016-10-08T06:11:07.735Z,91.44
2016-10-08T06:12:07.438Z,91.54
2016-10-08T06:13:08.218Z,92.04
2016-10-08T06:14:07.859Z,92.54
2016-10-08T06:15:07.508Z,92.09
2016-10-08T06:16:08.188Z,92.27
2016-10-08T06:17:07.950Z,92.06
2016-10-08T06:18:07.625Z,92.40
2016-10-08T06:19:08.306Z,92.66
2016-10-08T06:20:07.902Z,91.54
2016-10-08T06:21:07.588Z,91.78
2016-10-08T06:22:08.250Z,92.18
2016-10-08T06:23:07.891Z,92.16
2016-10-08T06:24:07.529Z,92.51
2016-10-08T06:25:08.175Z,92.85
2016-10-08T06:26:07.810Z,92.95
2016-10-08T06:27:07.530Z,92.46
2016-10-08T06:28:08.096Z,92.46
2016-10-08T06:29:07.816Z,92.40
2016-10-08T06:30:07.424Z,92.21
2016-10-08T06:31:08.167Z,92.33
2016-10-08T06:32:07.822Z,92.69
2016-10-08T06:33:07.442Z,92.76
2016-10-08T06:34:08.122Z,92.13
2016-10-08T06:35:07.750Z,91.74
2016-10-08T06:36:07.401Z,91.26
2016-10-08T06:37:13.682Z,91.80
2016-10-08T06:38:07.697Z,92.22
2016-10-08T06:39:08.339Z,91.95
2016-10-08T06:40:08.016Z,92.18
2016-10-08T06:41:07.662Z,92.58
2016-10-08T06:42:08.397Z,93.01
2016-10-08T06:43:08.019Z,92.93
2016-10-08T06:44:07.671Z,91.65
2016-10-08T06:45:08.293Z,91.90
2016-10-08T06:46:07.997Z,91.49
2016-10-08T06:47:07.703Z,91.28
2016-10-08T06:48:08.356Z,91.39
2016-10-08T06:49:08.013Z,90.88
2016-10-08T06:50:07.624Z,91.06
2016-10-08T06:51:08.261Z,91.05
2016-10-08T06:52:08.009Z,90.40
2016-10-08T06:53:07.553Z,90.66
2016-10-08T06:54:11.742Z,90.92
2016-10-08T06:55:07.935Z,90.66
2016-10-08T06:56:07.601Z,91.02
2016-10-08T06:57:08.302Z,90.18
2016-10-08T06:58:07.922Z,89.43
2016-10-08T06:59:07.600Z,89.81
2016-10-08T07:00:08.246Z,89.91
2016-10-08T07:01:07.887Z,89.91
2016-10-08T07:02:07.602Z,89.04
2016-10-08T07:03:08.218Z,89.21
2016-10-08T07:04:07.910Z,90.03
2016-10-08T07:05:07.535Z,90.42
2016-10-08T07:06:08.185Z,91.29
2016-10-08T07:07:07.873Z,91.20
2016-10-08T07:08:07.500Z,90.14
2016-10-08T07:09:08.167Z,89.44
2016-10-08T07:10:07.815Z,89.60
2016-10-08T07:11:07.417Z,89.03
2016-10-08T07:12:08.078Z,88.98
2016-10-08T07:13:07.712Z,88.99
2016-10-08T07:14:08.363Z,90.50
2016-10-08T07:15:08.026Z,90.43
2016-10-08T07:16:07.701Z,89.77
2016-10-08T07:17:08.447Z,89.20
2016-10-08T07:18:08.141Z,88.68
2016-10-08T07:19:07.876Z,88.77
2016-10-08T07:20:07.448Z,88.57
2016-10-08T07:21:08.071Z,88.40
2016-10-08T07:22:07.721Z,88.83
2016-10-08T07:23:07.426Z,89.08
2016-10-08T07:24:08.060Z,90.31
2016-10-08T07:25:07.716Z,90.62
2016-10-08T07:26:08.340Z,89.66
2016-10-08T07:27:08.029Z,88.71
2016-10-08T07:28:07.707Z,89.22
2016-10-08T07:29:08.295Z,88.17
2016-10-08T07:30:07.950Z,87.65
2016-10-08T07:31:07.604Z,89.45
2016-10-08T07:32:08.212Z,87.82
2016-10-08T07:33:07.925Z,87.59
2016-10-08T07:34:07.597Z,88.18
2016-10-08T07:35:08.186Z,88.43
2016-10-08T07:36:07.810Z,88.14
2016-10-08T07:37:07.595Z,88.50
2016-10-08T07:38:08.351Z,88.53
2016-10-08T07:39:07.900Z,88.96
2016-10-08T07:40:07.566Z,88.69
2016-10-08T07:41:08.227Z,87.27
2016-10-08T07:42:07.862Z,87.70
2016-10-08T07:43:07.538Z,88.77
2016-10-08T07:44:08.119Z,88.43
2016-10-08T07:45:07.837Z,87.25
2016-10-08T07:46:07.487Z,86.05
2016-10-08T07:47:08.139Z,86.48
2016-10-08T07:48:07.799Z,86.53
2016-10-08T07:49:07.589Z,87.07
2016-10-08T07:50:08.219Z,87.64
2016-10-08T07:51:07.875Z,87.37
2016-10-08T07:52:07.519Z,86.32
2016-10-08T07:53:08.228Z,86.81
2016-10-08T07:54:07.794Z,86.88
2016-10-08T07:55:07.463Z,87.69
2016-10-08T07:56:08.150Z,87.75
2016-10-08T07:57:07.786Z,87.32
2016-10-08T07:58:07.426Z,87.67
2016-10-08T07:59:08.677Z,86.21
2016-10-08T08:00:07.750Z,87.79
2016-10-08T08:01:08.358Z,88.32
2016-10-08T08:02:08.076Z,87.99
2016-10-08T08:03:07.704Z,87.17
2016-10-08T08:04:08.347Z,87.58
2016-10-08T08:05:07.935Z,87.23
2016-10-08T08:06:07.622Z,87.52
2016-10-08T08:07:08.553Z,87.42
2016-10-08T08:08:08.257Z,87.15
2016-10-08T08:09:07.948Z,86.73
2016-10-08T08:10:07.497Z,86.58
2016-10-08T08:11:08.186Z,86.94
2016-10-08T08:12:07.822Z,86.17
2016-10-08T08:13:07.527Z,85.47
2016-10-08T08:14:08.629Z,85.89
2016-10-08T08:15:07.830Z,87.22
2016-10-08T08:16:07.415Z,87.06
2016-10-08T08:17:08.136Z,86.00
2016-10-08T08:18:07.914Z,86.47
2016-10-08T08:19:07.536Z,86.61
2016-10-08T08:20:08.144Z,85.86
2016-10-08T08:21:07.796Z,85.92
2016-10-08T08:22:07.536Z,86.16
2016-10-08T08:23:08.205Z,86.17
2016-10-08T08:24:07.859Z,85.70
2016-10-08T08:25:07.479Z,85.55
2016-10-08T08:26:08.173Z,86.37
2016-10-08T08:27:07.823Z,85.24
2016-10-08T08:28:07.526Z,85.48
2016-10-08T08:29:08.595Z,85.23
2016-10-08T08:30:07.758Z,85.75
2016-10-08T08:31:07.379Z,84.71
2016-10-08T08:32:08.072Z,83.59
2016-10-08T08:33:07.786Z,84.32
2016-10-08T08:34:07.462Z,84.72
2016-10-08T08:35:08.062Z,84.88
2016-10-08T08:36:07.749Z,85.78
2016-10-08T08:37:08.325Z,85.11
2016-10-08T08:38:08.033Z,85.66
2016-10-08T08:39:07.741Z,86.18
2016-10-08T08:40:07.439Z,85.43
2016-10-08T08:41:08.032Z,84.72
2016-10-08T08:42:07.675Z,84.80
2016-10-08T08:43:08.380Z,84.14
2016-10-08T08:44:08.017Z,83.50
2016-10-08T08:45:07.688Z,83.17
2016-10-08T08:46:08.484Z,82.86
2016-10-08T08:47:07.961Z,82.33
2016-10-08T08:48:07.682Z,81.82
2016-10-08T08:49:08.360Z,82.05
2016-10-08T08:50:07.950Z,81.70
2016-10-08T08:51:07.591Z,81.57
2016-10-08T08:52:08.248Z,81.74
2016-10-08T08:53:08.106Z,81.95
2016-10-08T08:54:07.700Z,82.09
2016-10-08T08:55:07.418Z,82.31
2016-10-08T08:56:08.076Z,82.80
2016-10-08T08:57:07.718Z,80.82
2016-10-08T08:58:08.378Z,82.03
2016-10-08T08:59:08.029Z,82.33
2016-10-08T09:00:07.695Z,81.11
2016-10-08T09:01:08.334Z,81.41
2016-10-08T09:02:08.057Z,81.42
2016-10-08T09:03:07.710Z,82.32
2016-10-08T09:04:08.401Z,82.54
2016-10-08T09:05:07.973Z,83.73
2016-10-08T09:06:07.692Z,83.53
2016-10-08T09:07:08.347Z,80.30
2016-10-08T09:08:08.057Z,80.28
2016-10-08T09:09:07.657Z,81.09
2016-10-08T09:10:08.346Z,81.43
2016-10-08T09:11:08.004Z,80.43
2016-10-08T09:12:07.737Z,81.17
2016-10-08T09:13:08.333Z,80.32
2016-10-08T09:14:07.927Z,79.46
2016-10-08T09:15:07.675Z,80.01
2016-10-08T09:16:08.276Z,79.66
2016-10-08T09:17:08.073Z,79.59
2016-10-08T09:18:07.852Z,81.52
2016-10-08T09:19:07.433Z,78.78
2016-10-08T09:20:08.106Z,79.07
2016-10-08T09:21:07.737Z,78.59
2016-10-08T09:22:07.360Z,77.67
2016-10-08T09:23:08.035Z,79.61
2016-10-08T09:24:07.665Z,77.88
2016-10-08T09:25:08.304Z,77.55
2016-10-08T09:26:13.559Z,76.93
2016-10-08T09:27:07.655Z,77.82
2016-10-08T09:28:08.313Z,77.09
2016-10-08T09:29:07.922Z,77.34
2016-10-08T09:30:07.586Z,77.14
2016-10-08T09:31:08.216Z,77.11
2016-10-08T09:32:07.843Z,76.33
2016-10-08T09:33:07.589Z,76.43
2016-10-08T09:34:09.284Z,76.42
2016-10-08T09:35:07.923Z,76.44
2016-10-08T09:36:07.666Z,77.01
2016-10-08T09:37:08.150Z,75.62
2016-10-08T09:38:07.858Z,75.65
2016-10-08T09:39:07.456Z,76.38
2016-10-08T09:40:08.138Z,76.63
2016-10-08T09:41:07.760Z,76.97
2016-10-08T09:42:07.455Z,78.78
2016-10-08T09:43:08.163Z,78.40
2016-10-08T09:44:07.783Z,78.93
2016-10-08T09:45:07.411Z,77.67
2016-10-08T09:46:08.083Z,79.21
2016-10-08T09:47:07.751Z,78.29
2016-10-08T09:48:07.429Z,77.11
2016-10-08T09:49:08.042Z,76.73
2016-10-08T09:50:07.727Z,76.05
2016-10-08T09:51:08.320Z,76.42
2016-10-08T09:52:07.992Z,76.36
2016-10-08T09:53:07.669Z,77.40
2016-10-08T09:54:08.292Z,77.09
2016-10-08T09:55:07.969Z,76.47
2016-10-08T09:56:07.638Z,77.09
2016-10-08T09:57:08.228Z,76.55
2016-10-08T09:58:07.948Z,77.68
2016-10-08T09:59:07.550Z,77.87
2016-10-08T10:00:08.232Z,77.97
2016-10-08T10:01:07.846Z,76.39
2016-10-08T10:02:07.522Z,75.69
2016-10-08T10:03:08.173Z,76.03
2016-10-08T10:04:07.820Z,76.34
2016-10-08T10:05:07.516Z,75.92
2016-10-08T10:06:09.325Z,74.66
2016-10-08T10:07:07.769Z,75.47
2016-10-08T10:08:07.432Z,74.36
2016-10-08T10:09:08.045Z,75.82
2016-10-08T10:10:07.719Z,76.35
2016-10-08T10:11:07.395Z,75.38
2016-10-08T10:12:08.088Z,75.77
2016-10-08T10:13:07.748Z,77.38
2016-10-08T10:14:08.352Z,75.97
2016-10-08T10:15:08.008Z,75.87
2016-10-08T10:16:07.657Z,77.14
2016-10-08T10:17:08.443Z,77.86
2016-10-08T10:18:08.112Z,76.26
2016-10-08T10:19:07.780Z,75.41
2016-10-08T10:20:07.525Z,73.51
2016-10-08T10:21:08.116Z,73.55
2016-10-08T10:22:07.804Z,74.40
2016-10-08T10:23:07.499Z,75.99
2016-10-08T10:24:08.113Z,75.42
2016-10-08T10:25:07.764Z,72.02
2016-10-08T10:26:07.378Z,72.08
2016-10-08T10:27:08.046Z,73.94
2016-10-08T10:28:07.713Z,76.18
2016-10-08T10:29:09.124Z,77.22
2016-10-08T10:30:07.814Z,75.71
2016-10-08T10:31:07.486Z,74.07
2016-10-08T10:32:08.089Z,74.22
2016-10-08T10:33:07.799Z,75.92
2016-10-08T10:34:07.410Z,75.37
2016-10-08T10:35:08.121Z,73.59
2016-10-08T10:36:07.699Z,71.40
2016-10-08T10:37:08.330Z,71.45
2016-10-08T10:38:08.470Z,73.04
2016-10-08T10:39:07.625Z,72.24
2016-10-08T10:40:07.397Z,72.44
2016-10-08T10:41:08.043Z,70.95
2016-10-08T10:42:07.757Z,69.64
2016-10-08T10:43:14.032Z,69.45
2016-10-08T10:44:08.113Z,70.85
2016-10-08T10:45:07.653Z,71.78
2016-10-08T10:46:08.361Z,71.04
2016-10-08T10:47:07.947Z,70.33
2016-10-08T10:48:07.624Z,70.29
2016-10-08T10:49:08.304Z,71.86
2016-10-08T10:50:07.959Z,73.30
2016-10-08T10:51:07.566Z,70.96
2016-10-08T10:52:08.230Z,68.99
2016-10-08T10:53:07.909Z,71.33
2016-10-08T10:54:07.618Z,70.44
2016-10-08T10:55:08.193Z,70.79
2016-10-08T10:56:07.819Z,71.69
2016-10-08T10:57:07.472Z,70.37
2016-10-08T10:58:08.127Z,70.56
2016-10-08T10:59:08.954Z,69.51
2016-10-08T11:00:07.424Z,72.48
2016-10-08T11:01:08.050Z,71.39
2016-10-08T11:02:07.710Z,72.87
2016-10-08T11:03:07.421Z,73.02
2016-10-08T11:04:08.047Z,73.15
2016-10-08T11:05:07.756Z,72.06
2016-10-08T11:06:09.430Z,71.75
2016-10-08T11:07:08.055Z,71.81
2016-10-08T11:08:07.683Z,72.17
2016-10-08T11:09:07.418Z,71.65
2016-10-08T11:10:08.087Z,71.49
2016-10-08T11:11:07.738Z,69.92
2016-10-08T11:12:08.367Z,70.62
2016-10-08T11:13:08.067Z,70.29
2016-10-08T11:14:07.705Z,68.04
2016-10-08T11:15:08.345Z,67.98
2016-10-08T11:16:07.931Z,67.75
2016-10-08T11:17:07.699Z,65.87
2016-10-08T11:18:07.396Z,67.02
2016-10-08T11:19:08.032Z,69.03
2016-10-08T11:20:07.685Z,70.22
2016-10-08T11:21:08.339Z,69.28
2016-10-08T11:22:07.932Z,69.83
2016-10-08T11:23:07.659Z,70.52
2016-10-08T11:24:08.256Z,71.21
2016-10-08T11:25:07.958Z,72.79
2016-10-08T11:26:07.668Z,74.36
2016-10-08T11:27:08.232Z,72.89
2016-10-08T11:28:07.899Z,72.82
2016-10-08T11:29:07.513Z,71.09
2016-10-08T11:30:08.209Z,72.04
2016-10-08T11:31:07.835Z,70.84
2016-10-08T11:32:07.457Z,69.80
2016-10-08T11:33:08.278Z,71.40
2016-10-08T11:34:07.914Z,71.84
2016-10-08T11:35:07.618Z,71.16
2016-10-08T11:36:08.254Z,72.61
2016-10-08T11:37:07.860Z,72.84
2016-10-08T11:38:07.573Z,70.88
2016-10-08T11:39:08.750Z,69.97
2016-10-08T11:40:07.918Z,72.21
2016-10-08T11:41:07.534Z,73.02
2016-10-08T11:42:08.168Z,73.03
2016-10-08T11:43:07.878Z,72.70
2016-10-08T11:44:07.494Z,74.30
2016-10-08T11:45:08.236Z,75.05
2016-10-08T11:46:07.869Z,76.79
2016-10-08T11:47:07.518Z,76.44
2016-10-08T11:48:08.189Z,77.02
2016-10-08T11:49:07.848Z,76.63
2016-10-08T11:50:07.527Z,76.32
2016-10-08T11:51:08.180Z,77.15
2016-10-08T11:52:07.826Z,77.93
2016-10-08T11:53:07.547Z,76.72
2016-10-08T11:54:08.251Z,77.58
2016-10-08T11:55:07.948Z,74.83
2016-10-08T11:56:07.565Z,75.84
2016-10-08T11:57:08.224Z,75.57
2016-10-08T11:58:07.872Z,76.30
2016-10-08T11:59:07.587Z,76.44
2016-10-08T12:00:08.277Z,76.88
2016-10-08T12:01:07.926Z,76.62
2016-10-08T12:02:07.567Z,78.44
2016-10-08T12:03:08.189Z,74.28
2016-10-08T12:04:07.836Z,71.15
2016-10-08T12:05:07.520Z,73.07
2016-10-08T12:06:08.195Z,73.62
2016-10-08T12:07:07.777Z,75.06
2016-10-08T12:08:07.412Z,76.20
2016-10-08T12:09:08.055Z,73.75
2016-10-08T12:10:07.804Z,76.05
2016-10-08T12:11:12.948Z,76.68
2016-10-08T12:12:08.079Z,76.97
2016-10-08T12:13:13.406Z,72.65
2016-10-08T12:14:07.442Z,75.21
2016-10-08T12:15:08.126Z,76.64
2016-10-08T12:16:07.752Z,75.33
2016-10-08T12:17:07.490Z,74.39
2016-10-08T12:18:08.423Z,74.16
2016-10-08T12:19:07.842Z,73.04
2016-10-08T12:20:07.523Z,74.70
2016-10-08T12:21:08.188Z,76.12
2016-10-08T12:22:07.787Z,76.59
2016-10-08T12:23:07.426Z,73.53
2016-10-08T12:24:13.647Z,72.92
2016-10-08T12:25:07.800Z,73.36
2016-10-08T12:26:07.396Z,75.01
2016-10-08T12:27:08.038Z,73.48
2016-10-08T12:28:07.696Z,74.46
2016-10-08T12:29:08.370Z,74.22
2016-10-08T12:30:08.051Z,74.63
2016-10-08T12:31:07.674Z,75.31
2016-10-08T12:32:08.314Z,75.68
2016-10-08T12:33:07.998Z,77.21
2016-10-08T12:34:07.627Z,78.62
2016-10-08T12:35:08.300Z,78.16
2016-10-08T12:36:07.895Z,78.89
2016-10-08T12:37:07.560Z,78.27
2016-10-08T12:38:09.539Z,77.89
2016-10-08T12:39:08.174Z,77.31
2016-10-08T12:40:07.926Z,76.68
2016-10-08T12:41:07.509Z,77.78
2016-10-08T12:42:08.179Z,78.44
2016-10-08T12:43:07.844Z,77.82
2016-10-08T12:44:07.511Z,78.41
2016-10-08T12:45:08.216Z,78.71
2016-10-08T12:46:07.801Z,79.02
2016-10-08T12:47:07.412Z,79.49
2016-10-08T12:48:08.105Z,79.20
2016-10-08T12:49:07.736Z,79.51
2016-10-08T12:50:07.458Z,79.14
2016-10-08T12:51:08.063Z,78.46
2016-10-08T12:52:07.723Z,79.47